createdAt,value
2022-10-13T00:01:07.880Z,22.00
2022-10-13T00:03:37.228Z,24.50
2022-10-13T00:06:06.143Z,25.00
2022-10-13T00:08:34.512Z,24.00
2022-10-13T00:11:09.135Z,29.50
2022-10-13T00:13:36.791Z,21.50
2022-10-13T00:16:04.925Z,25.00
2022-10-13T00:18:32.831Z,23.50
2022-10-13T00:21:00.606Z,20.00
2022-10-13T00:23:28.666Z,21.00
2022-10-13T00:25:56.544Z,25.00
2022-10-13T00:28:24.358Z,24.00
2022-10-13T00:30:52.268Z,29.00
2022-10-13T00:33:19.964Z,21.33
2022-10-13T00:35:49.088Z,21.00
2022-10-13T00:38:20.001Z,24.00
2022-10-13T00:40:48.046Z,26.00
2022-10-13T00:43:20.007Z,21.50
2022-10-13T00:45:50.842Z,21.00
2022-10-13T00:48:29.657Z,24.00
2022-10-13T00:50:58.855Z,23.00
2022-10-13T00:53:29.998Z,26.00
2022-10-13T00:55:57.873Z,22.50
2022-10-13T00:58:25.946Z,24.50
2022-10-13T01:00:53.910Z,27.00
2022-10-13T01:03:22.090Z,22.00
2022-10-13T01:05:51.594Z,31.00
2022-10-13T01:08:20.254Z,26.67
2022-10-13T01:11:07.697Z,26.00
2022-10-13T01:13:41.273Z,22.00
2022-10-13T01:16:27.605Z,23.00
2022-10-13T01:18:55.222Z,24.00
2022-10-13T01:21:23.033Z,25.00
2022-10-13T01:24:09.616Z,25.00
2022-10-13T01:26:40.506Z,26.00
2022-10-13T01:29:14.730Z,27.00
2022-10-13T01:31:49.211Z,24.00
2022-10-13T01:34:20.151Z,26.00
2022-10-13T01:36:47.872Z,24.00
2022-10-13T01:39:18.641Z,25.00
2022-10-13T01:41:49.684Z,27.00
2022-10-13T01:44:20.527Z,27.00
2022-10-13T01:46:54.811Z,23.00
2022-10-13T01:49:26.065Z,20.00
2022-10-13T01:51:55.281Z,25.00
2022-10-13T01:54:23.055Z,22.00
2022-10-13T01:56:54.401Z,23.00
2022-10-13T01:59:23.499Z,20.50
2022-10-13T02:02:06.773Z,25.33
2022-10-13T02:04:43.800Z,23.00
2022-10-13T02:07:21.372Z,23.00
2022-10-13T02:09:49.057Z,23.00
2022-10-13T02:12:21.345Z,23.00
2022-10-13T02:14:50.738Z,26.00
2022-10-13T02:17:19.629Z,32.00
2022-10-13T02:19:47.389Z,28.00
2022-10-13T02:22:16.653Z,28.00
2022-10-13T02:24:44.767Z,26.00
2022-10-13T02:27:13.045Z,27.00
2022-10-13T02:29:54.632Z,28.00
2022-10-13T02:32:24.127Z,22.00
2022-10-13T02:34:52.612Z,27.00
2022-10-13T02:37:20.587Z,26.00
2022-10-13T02:39:48.358Z,27.00
2022-10-13T02:42:18.099Z,23.00
2022-10-13T02:44:46.957Z,23.00
2022-10-13T02:47:14.825Z,22.00
2022-10-13T02:49:42.682Z,23.00
2022-10-13T02:52:10.652Z,25.00
2022-10-13T02:54:43.133Z,25.00
2022-10-13T02:57:10.994Z,23.00
2022-10-13T02:59:38.659Z,23.00
2022-10-13T03:02:06.426Z,22.00
2022-10-13T03:04:35.632Z,20.00
2022-10-13T03:07:04.209Z,22.00
2022-10-13T03:09:32.379Z,26.00
2022-10-13T03:12:00.236Z,21.00
2022-10-13T03:14:28.386Z,22.00
2022-10-13T03:16:56.311Z,23.00
2022-10-13T03:19:24.105Z,25.00
2022-10-13T03:21:51.793Z,20.00
2022-10-13T03:24:19.681Z,23.00
2022-10-13T03:26:47.340Z,30.00
2022-10-13T03:29:16.154Z,23.00
2022-10-13T03:31:44.304Z,20.50
2022-10-13T03:34:13.004Z,27.00
2022-10-13T03:36:40.747Z,30.00
2022-10-13T03:39:08.827Z,29.00
2022-10-13T03:41:36.583Z,26.50
2022-10-13T03:44:04.697Z,26.00
2022-10-13T03:46:33.340Z,23.00
2022-10-13T03:49:01.214Z,17.00
2022-10-13T03:51:30.786Z,21.00
2022-10-13T03:53:58.785Z,18.50
2022-10-13T03:56:27.786Z,21.00
2022-10-13T03:58:56.982Z,23.00
2022-10-13T04:01:26.365Z,21.50
2022-10-13T04:03:55.905Z,20.00
2022-10-13T04:06:24.567Z,20.00
2022-10-13T04:08:52.956Z,20.50
2022-10-13T04:11:21.308Z,24.00
2022-10-13T04:13:52.793Z,26.00
2022-10-13T04:16:23.625Z,23.50
2022-10-13T04:18:55.947Z,25.50
2022-10-13T04:21:24.164Z,32.00
2022-10-13T04:23:54.264Z,28.00
2022-10-13T04:26:22.873Z,29.00
2022-10-13T04:28:51.880Z,29.00
2022-10-13T04:31:22.291Z,35.67
2022-10-13T04:33:50.664Z,33.50
2022-10-13T04:36:19.251Z,31.00
2022-10-13T04:38:47.532Z,29.00
2022-10-13T04:41:16.108Z,30.00
2022-10-13T04:43:44.105Z,34.00
2022-10-13T04:46:16.476Z,31.00
2022-10-13T04:48:44.220Z,29.50
2022-10-13T04:51:13.763Z,28.67
2022-10-13T04:53:41.693Z,26.00
2022-10-13T04:56:15.400Z,29.00
2022-10-13T04:58:44.078Z,28.00
2022-10-13T05:01:21.382Z,29.00
2022-10-13T05:04:00.604Z,27.00
2022-10-13T05:06:33.034Z,28.67
2022-10-13T05:09:01.042Z,26.67
2022-10-13T05:11:29.388Z,24.00
2022-10-13T05:13:57.698Z,31.00
2022-10-13T05:16:25.776Z,27.50
2022-10-13T05:18:54.739Z,28.00
2022-10-13T05:21:24.474Z,28.00
2022-10-13T05:23:55.548Z,31.00
2022-10-13T05:26:28.029Z,28.00
2022-10-13T05:28:56.681Z,27.50
2022-10-13T05:31:27.210Z,28.50
2022-10-13T05:33:55.535Z,31.00
2022-10-13T05:36:24.832Z,30.50
2022-10-13T05:38:53.996Z,33.33
2022-10-13T05:41:23.285Z,31.00
2022-10-13T05:43:53.090Z,29.00
2022-10-13T05:46:20.855Z,30.00
2022-10-13T05:48:48.832Z,32.00
2022-10-13T05:51:18.517Z,27.50
2022-10-13T05:53:55.378Z,29.00
2022-10-13T05:56:27.538Z,31.00
2022-10-13T05:58:59.440Z,28.00
2022-10-13T06:01:29.421Z,27.00
2022-10-13T06:04:02.042Z,25.00
2022-10-13T06:06:31.625Z,33.00
2022-10-13T06:09:00.908Z,29.00
2022-10-13T06:11:28.516Z,31.00
2022-10-13T06:13:56.141Z,26.00
2022-10-13T06:16:24.156Z,24.00
2022-10-13T06:18:51.755Z,26.00
2022-10-13T06:21:19.571Z,24.00
2022-10-13T06:23:47.733Z,23.00
2022-10-13T06:26:17.757Z,24.00
2022-10-13T06:28:49.812Z,25.00
2022-10-13T06:31:19.943Z,27.00
2022-10-13T06:33:47.803Z,26.00
2022-10-13T06:36:15.567Z,27.00
2022-10-13T06:38:43.436Z,23.50
2022-10-13T06:41:12.734Z,22.00
2022-10-13T06:43:40.852Z,25.00
2022-10-13T06:46:11.925Z,22.00
2022-10-13T06:48:39.927Z,27.00
2022-10-13T06:51:09.739Z,26.00
2022-10-13T06:53:37.814Z,31.00
2022-10-13T06:56:06.953Z,27.00
2022-10-13T06:58:35.593Z,24.00
2022-10-13T07:01:03.854Z,26.00
2022-10-13T07:03:32.036Z,25.00
2022-10-13T07:06:01.238Z,28.00
2022-10-13T07:08:29.004Z,24.00
2022-10-13T07:10:57.831Z,30.00
2022-10-13T07:13:25.886Z,33.00
2022-10-13T07:15:53.490Z,31.00
2022-10-13T07:18:21.290Z,29.00
2022-10-13T07:20:49.002Z,29.00
2022-10-13T07:23:16.831Z,30.00
2022-10-13T07:25:44.590Z,33.00
2022-10-13T07:28:12.684Z,31.00
2022-10-13T07:30:40.518Z,29.00
2022-10-13T07:33:08.798Z,29.50
2022-10-13T07:35:39.334Z,32.00
2022-10-13T07:38:07.670Z,35.00
2022-10-13T07:40:35.882Z,35.00
2022-10-13T07:43:03.527Z,36.00
2022-10-13T07:45:31.503Z,38.00
2022-10-13T07:48:00.613Z,39.00
2022-10-13T07:50:28.310Z,34.00
2022-10-13T07:52:56.885Z,34.50
2022-10-13T07:55:24.621Z,38.00
2022-10-13T07:57:55.353Z,35.33
2022-10-13T08:00:23.219Z,36.00
2022-10-13T08:02:51.508Z,36.00
2022-10-13T08:05:19.262Z,33.00
2022-10-13T08:07:47.129Z,35.00
2022-10-13T08:10:15.510Z,32.00
2022-10-13T08:12:43.272Z,33.00
2022-10-13T08:15:11.312Z,31.00
2022-10-13T08:17:39.313Z,31.00
2022-10-13T08:20:07.806Z,33.00
2022-10-13T08:22:35.550Z,32.50
2022-10-13T08:25:03.525Z,32.00
2022-10-13T08:27:49.566Z,32.00
2022-10-13T08:30:19.510Z,27.00
2022-10-13T08:32:47.713Z,31.00
2022-10-13T08:35:16.183Z,29.00
2022-10-13T08:37:43.947Z,35.00
2022-10-13T08:40:14.125Z,34.00
2022-10-13T08:42:43.572Z,29.33
2022-10-13T08:45:39.939Z,33.00
2022-10-13T08:48:06.235Z,29.00
2022-10-13T08:50:36.113Z,34.67
2022-10-13T08:53:23.583Z,31.00
2022-10-13T08:55:56.975Z,28.00
2022-10-13T08:58:32.835Z,31.00
2022-10-13T09:01:10.634Z,30.00
2022-10-13T09:03:49.553Z,33.50
2022-10-13T09:06:21.830Z,35.00
2022-10-13T09:08:57.370Z,32.00
2022-10-13T09:11:30.165Z,33.50
2022-10-13T09:13:59.552Z,29.50
2022-10-13T09:16:28.963Z,33.00
2022-10-13T09:19:11.979Z,29.00
2022-10-13T09:21:40.257Z,29.50
2022-10-13T09:24:12.444Z,30.50
2022-10-13T09:26:40.398Z,29.50
2022-10-13T09:29:16.047Z,30.00
2022-10-13T09:31:44.522Z,32.33
2022-10-13T09:34:21.306Z,30.00
2022-10-13T09:37:03.477Z,24.50
2022-10-13T09:39:33.013Z,25.00
2022-10-13T09:42:33.135Z,30.00
2022-10-13T09:45:12.266Z,33.00
2022-10-13T09:47:40.952Z,27.00
2022-10-13T09:50:17.489Z,32.00
2022-10-13T09:52:46.315Z,31.00
2022-10-13T09:55:34.084Z,29.00
2022-10-13T09:58:05.184Z,27.00
2022-10-13T10:00:33.362Z,34.00
2022-10-13T10:03:04.403Z,29.00
2022-10-13T10:05:50.785Z,26.00
2022-10-13T10:08:28.870Z,27.00
2022-10-13T10:11:10.569Z,31.50
2022-10-13T10:13:38.360Z,29.50
2022-10-13T10:16:18.132Z,24.00
2022-10-13T10:18:53.857Z,23.00
2022-10-13T10:21:39.337Z,25.00
2022-10-13T10:24:45.890Z,25.00
2022-10-13T10:27:26.051Z,15.00
2022-10-13T10:29:56.297Z,18.00
2022-10-13T10:32:35.922Z,27.00
2022-10-13T10:35:12.808Z,20.50
2022-10-13T10:37:59.349Z,22.00
2022-10-13T10:40:27.290Z,19.50
2022-10-13T10:43:07.141Z,21.00
2022-10-13T10:45:37.658Z,23.50
2022-10-13T10:48:25.954Z,22.00
2022-10-13T10:50:53.940Z,24.00
2022-10-13T10:53:31.775Z,28.00
2022-10-13T10:56:03.846Z,27.50
2022-10-13T10:58:50.555Z,23.00
2022-10-13T11:01:38.658Z,24.00
2022-10-13T11:04:26.693Z,20.00
2022-10-13T11:06:54.713Z,23.00
2022-10-13T11:09:41.197Z,23.50
2022-10-13T11:12:30.478Z,19.00
2022-10-13T11:15:01.014Z,22.00
2022-10-13T11:17:33.716Z,23.00
2022-10-13T11:20:21.537Z,24.00
2022-10-13T11:22:58.303Z,22.00
2022-10-13T11:25:43.371Z,20.00
2022-10-13T11:28:23.393Z,21.00
2022-10-13T11:31:17.709Z,20.00
2022-10-13T11:33:48.221Z,20.00
2022-10-13T11:36:27.956Z,23.50
2022-10-13T11:39:09.051Z,21.00
2022-10-13T11:41:49.116Z,20.00
2022-10-13T11:44:21.706Z,22.00
2022-10-13T11:46:50.581Z,24.50
2022-10-13T11:49:29.608Z,23.33
2022-10-13T11:52:03.345Z,19.00
2022-10-13T11:54:40.599Z,22.00
2022-10-13T11:57:25.012Z,23.00
2022-10-13T11:59:55.925Z,21.50
2022-10-13T12:02:28.640Z,26.00
2022-10-13T12:05:00.639Z,20.00
2022-10-13T12:07:32.253Z,21.00
2022-10-13T12:10:00.671Z,20.00
2022-10-13T12:12:29.051Z,23.00
2022-10-13T12:14:59.948Z,25.00
2022-10-13T12:17:32.371Z,24.00
2022-10-13T12:20:01.227Z,21.50
2022-10-13T12:22:29.623Z,22.00
2022-10-13T12:25:05.589Z,20.00
2022-10-13T12:27:47.483Z,23.00
2022-10-13T12:30:26.512Z,18.50
2022-10-13T12:32:56.221Z,18.00
2022-10-13T12:35:26.231Z,20.50
2022-10-13T12:37:55.130Z,23.50
2022-10-13T12:40:23.819Z,19.50
2022-10-13T12:42:51.731Z,16.00
2022-10-13T12:45:21.189Z,21.00
2022-10-13T12:47:49.053Z,20.00
2022-10-13T12:50:36.692Z,19.00
2022-10-13T12:53:13.318Z,19.00
2022-10-13T12:55:47.163Z,21.50
2022-10-13T12:58:35.092Z,18.00
2022-10-13T13:01:09.010Z,22.00
2022-10-13T13:03:37.861Z,19.50
2022-10-13T13:06:08.532Z,21.00
2022-10-13T13:08:36.401Z,19.00
2022-10-13T13:11:19.729Z,21.00
2022-10-13T13:13:48.899Z,12.50
2022-10-13T13:16:21.599Z,13.00
2022-10-13T13:18:50.207Z,12.00
2022-10-13T13:21:19.893Z,19.00
2022-10-13T13:23:51.271Z,19.00
2022-10-13T13:26:23.060Z,21.00
2022-10-13T13:28:52.042Z,18.50
2022-10-13T13:31:21.394Z,18.00
2022-10-13T13:33:49.495Z,20.00
2022-10-13T13:36:18.735Z,23.00
2022-10-13T13:38:48.075Z,20.00
2022-10-13T13:41:16.561Z,19.00
2022-10-13T13:43:44.417Z,17.00
2022-10-13T13:46:23.547Z,18.00
2022-10-13T13:48:51.934Z,21.00
2022-10-13T13:51:19.912Z,19.00
2022-10-13T13:53:49.314Z,20.00
2022-10-13T13:56:19.321Z,22.00
2022-10-13T13:58:47.712Z,23.00
2022-10-13T14:01:15.956Z,19.50
2022-10-13T14:03:44.050Z,18.00
2022-10-13T14:06:19.835Z,18.50
2022-10-13T14:08:47.559Z,18.00
2022-10-13T14:11:15.527Z,20.00
2022-10-13T14:13:43.395Z,15.00
2022-10-13T14:16:15.842Z,19.00
2022-10-13T14:18:43.948Z,18.00
2022-10-13T14:21:11.917Z,19.50
2022-10-13T14:23:40.602Z,15.00
2022-10-13T14:26:09.726Z,17.50
2022-10-13T14:28:40.165Z,18.00
2022-10-13T14:31:08.605Z,19.00
2022-10-13T14:33:39.236Z,16.00
2022-10-13T14:36:07.427Z,19.00
2022-10-13T14:38:35.373Z,20.00
2022-10-13T14:41:04.162Z,18.00
2022-10-13T14:43:32.855Z,18.00
2022-10-13T14:46:04.612Z,23.00
2022-10-13T14:48:35.824Z,27.00
2022-10-13T14:51:04.924Z,27.50
2022-10-13T14:53:36.920Z,30.00
2022-10-13T14:56:13.906Z,28.00
2022-10-13T14:58:43.301Z,21.00
2022-10-13T15:01:11.068Z,22.50
2022-10-13T15:03:38.732Z,17.00
2022-10-13T15:06:06.793Z,18.00
2022-10-13T15:08:34.488Z,21.00
2022-10-13T15:11:03.446Z,18.00
2022-10-13T15:13:31.316Z,16.00
2022-10-13T15:16:02.672Z,18.00
2022-10-13T15:18:31.385Z,18.67
2022-10-13T15:20:59.324Z,15.00
2022-10-13T15:23:27.267Z,16.00
2022-10-13T15:25:56.948Z,18.50
2022-10-13T15:28:25.751Z,18.00
2022-10-13T15:30:53.766Z,14.00
2022-10-13T15:33:22.962Z,19.00
2022-10-13T15:35:51.444Z,16.00
2022-10-13T15:38:20.326Z,21.00
2022-10-13T15:40:48.391Z,18.50
2022-10-13T15:43:17.189Z,20.00
2022-10-13T15:45:53.756Z,16.00
2022-10-13T15:48:21.732Z,18.00
2022-10-13T15:50:49.598Z,19.00
2022-10-13T15:53:17.564Z,19.00
2022-10-13T15:55:45.416Z,20.00
2022-10-13T15:58:14.043Z,20.00
2022-10-13T16:00:42.604Z,22.00
2022-10-13T16:03:15.235Z,17.00
2022-10-13T16:05:44.274Z,19.00
2022-10-13T16:08:12.654Z,18.00
2022-10-13T16:10:41.459Z,21.00
2022-10-13T16:13:09.713Z,19.00
2022-10-13T16:15:37.585Z,22.00
2022-10-13T16:18:06.074Z,22.00
2022-10-13T16:20:37.933Z,20.00
2022-10-13T16:23:06.569Z,19.00
2022-10-13T16:25:38.575Z,20.00
2022-10-13T16:28:06.442Z,24.00
2022-10-13T16:30:36.156Z,26.50
2022-10-13T16:33:04.092Z,26.33
2022-10-13T16:35:31.990Z,26.00
2022-10-13T16:38:00.368Z,22.00
2022-10-13T16:40:28.097Z,24.50
2022-10-13T16:42:55.918Z,25.00
2022-10-13T16:45:41.195Z,24.00
2022-10-13T16:48:11.693Z,21.00
2022-10-13T16:50:39.471Z,28.50
2022-10-13T16:53:07.230Z,24.00
2022-10-13T16:55:35.099Z,26.00
2022-10-13T16:58:02.962Z,18.50
2022-10-13T17:00:30.800Z,22.00
2022-10-13T17:02:58.757Z,24.50
2022-10-13T17:05:26.560Z,25.50
2022-10-13T17:07:54.477Z,25.00
2022-10-13T17:10:22.210Z,27.00
2022-10-13T17:12:51.045Z,24.00
2022-10-13T17:15:18.842Z,28.00
2022-10-13T17:17:46.716Z,25.00
2022-10-13T17:20:15.401Z,24.50
2022-10-13T17:22:45.210Z,22.00
2022-10-13T17:25:13.636Z,30.67
2022-10-13T17:27:41.461Z,26.50
2022-10-13T17:30:10.503Z,30.00
2022-10-13T17:32:38.874Z,29.00
2022-10-13T17:35:07.019Z,26.00
2022-10-13T17:37:34.877Z,27.67
2022-10-13T17:40:02.835Z,27.00
2022-10-13T17:42:30.599Z,30.00
2022-10-13T17:44:58.373Z,27.00
2022-10-13T17:47:26.129Z,25.00
2022-10-13T17:49:55.964Z,30.00
2022-10-13T17:52:24.422Z,29.00
2022-10-13T17:54:52.191Z,35.50
2022-10-13T17:57:20.267Z,34.50
2022-10-13T17:59:48.333Z,35.00
2022-10-13T18:02:16.320Z,35.50
2022-10-13T18:04:44.747Z,33.00
2022-10-13T18:07:12.444Z,34.00
2022-10-13T18:09:40.322Z,39.00
2022-10-13T18:12:08.291Z,40.00
2022-10-13T18:14:36.360Z,39.50
2022-10-13T18:17:04.216Z,31.50
2022-10-13T18:19:35.393Z,36.67
2022-10-13T18:22:05.797Z,38.00
2022-10-13T18:24:33.974Z,34.67
2022-10-13T18:27:01.735Z,45.00
2022-10-13T18:29:29.599Z,45.00
2022-10-13T18:31:57.462Z,42.00
2022-10-13T18:34:25.090Z,36.00
2022-10-13T18:36:56.476Z,35.50
2022-10-13T18:39:28.023Z,36.00
2022-10-13T18:41:56.818Z,36.00
2022-10-13T18:44:29.393Z,36.00
2022-10-13T18:46:57.257Z,36.00
2022-10-13T18:49:31.311Z,35.00
2022-10-13T18:52:00.590Z,32.00
2022-10-13T18:54:28.956Z,31.00
2022-10-13T18:56:57.080Z,35.50
2022-10-13T18:59:24.995Z,36.00
2022-10-13T19:01:52.753Z,36.50
2022-10-13T19:04:22.677Z,37.00
2022-10-13T19:06:51.566Z,39.00
2022-10-13T19:09:21.792Z,34.50
2022-10-13T19:11:50.259Z,33.67
2022-10-13T19:14:18.924Z,30.00
2022-10-13T19:16:46.618Z,34.00
2022-10-13T19:19:14.482Z,34.00
2022-10-13T19:21:42.656Z,30.00
2022-10-13T19:24:11.962Z,32.50
2022-10-13T19:26:39.929Z,34.00
2022-10-13T19:29:10.235Z,33.00
2022-10-13T19:31:38.936Z,30.00
2022-10-13T19:34:10.761Z,35.67
2022-10-13T19:36:43.353Z,39.00
2022-10-13T19:39:13.701Z,39.00
2022-10-13T19:41:41.765Z,36.00
2022-10-13T19:44:09.941Z,35.00
2022-10-13T19:46:41.927Z,36.00
2022-10-13T19:49:10.803Z,41.00
2022-10-13T19:51:41.945Z,37.00
2022-10-13T19:54:09.916Z,38.00
2022-10-13T19:56:39.014Z,36.00
2022-10-13T19:59:08.840Z,40.67
2022-10-13T20:01:41.121Z,37.00
2022-10-13T20:04:14.422Z,36.50
2022-10-13T20:06:44.534Z,34.00
2022-10-13T20:09:12.569Z,35.00
2022-10-13T20:11:40.750Z,32.50
2022-10-13T20:14:08.615Z,34.00
2022-10-13T20:16:38.016Z,37.00
2022-10-13T20:19:06.938Z,39.50
2022-10-13T20:21:34.877Z,34.00
2022-10-13T20:24:02.852Z,34.00
2022-10-13T20:26:30.708Z,35.00
2022-10-13T20:28:59.034Z,38.00
2022-10-13T20:31:27.286Z,41.00
2022-10-13T20:33:56.071Z,44.50
2022-10-13T20:36:24.740Z,41.00
2022-10-13T20:38:52.677Z,41.00
2022-10-13T20:41:21.082Z,39.00
2022-10-13T20:43:49.532Z,37.67
2022-10-13T20:46:18.054Z,37.00
2022-10-13T20:49:09.491Z,35.00
2022-10-13T20:51:34.563Z,39.00
2022-10-13T20:54:02.338Z,38.33
2022-10-13T20:56:30.207Z,36.00
2022-10-13T20:59:02.957Z,37.00
2022-10-13T21:01:31.194Z,36.00
2022-10-13T21:03:59.358Z,37.00
2022-10-13T21:06:27.509Z,37.00
2022-10-13T21:08:57.315Z,37.50
2022-10-13T21:11:25.290Z,37.00
2022-10-13T21:13:53.236Z,37.33
2022-10-13T21:16:23.817Z,40.00
2022-10-13T21:18:52.164Z,44.00
2022-10-13T21:21:22.648Z,40.00
2022-10-13T21:23:56.602Z,38.00
2022-10-13T21:26:25.598Z,38.50
2022-10-13T21:28:53.925Z,38.67
2022-10-13T21:31:22.867Z,37.00
2022-10-13T21:33:51.043Z,34.50
2022-10-13T21:36:23.407Z,36.00
2022-10-13T21:38:53.736Z,37.00
2022-10-13T21:41:22.082Z,35.67
2022-10-13T21:43:50.809Z,34.00
2022-10-13T21:46:27.327Z,36.50
2022-10-13T21:48:59.738Z,38.00
2022-10-13T21:51:29.740Z,39.50
2022-10-13T21:53:59.260Z,40.00
2022-10-13T21:56:27.636Z,36.50
2022-10-13T21:58:56.141Z,33.00
2022-10-13T22:01:24.511Z,36.00
2022-10-13T22:03:53.697Z,39.00
2022-10-13T22:06:24.576Z,36.00
2022-10-13T22:08:53.531Z,37.00
2022-10-13T22:11:25.391Z,39.50
2022-10-13T22:13:53.040Z,37.00
2022-10-13T22:16:22.520Z,37.50
2022-10-13T22:18:54.239Z,34.00
2022-10-13T22:21:24.946Z,33.00
2022-10-13T22:23:55.779Z,32.00
2022-10-13T22:26:23.437Z,32.00
2022-10-13T22:28:51.973Z,36.00
2022-10-13T22:31:20.410Z,34.00
2022-10-13T22:33:48.164Z,36.00
2022-10-13T22:36:17.544Z,31.00
2022-10-13T22:38:46.463Z,34.67
2022-10-13T22:41:14.904Z,35.50
2022-10-13T22:43:46.906Z,34.00
2022-10-13T22:46:16.419Z,34.00
2022-10-13T22:48:44.382Z,34.50
2022-10-13T22:51:13.724Z,36.00
2022-10-13T22:53:41.389Z,34.00
2022-10-13T22:56:10.133Z,34.50
2022-10-13T22:58:37.760Z,34.50
2022-10-13T23:01:06.763Z,31.50
2022-10-13T23:03:34.920Z,32.50
2022-10-13T23:06:03.752Z,31.50
2022-10-13T23:08:31.624Z,37.00
2022-10-13T23:10:59.388Z,36.00
2022-10-13T23:13:27.453Z,30.00
2022-10-13T23:16:17.236Z,28.50
2022-10-13T23:18:45.603Z,29.00
2022-10-13T23:21:26.669Z,30.50
2022-10-13T23:23:58.463Z,31.00
2022-10-13T23:26:26.525Z,35.00
2022-10-13T23:28:58.383Z,33.00
2022-10-13T23:31:27.683Z,31.00
2022-10-13T23:33:55.608Z,33.00
2022-10-13T23:36:24.853Z,30.00
2022-10-13T23:38:56.013Z,29.00
2022-10-13T23:41:24.684Z,33.00
2022-10-13T23:43:52.554Z,29.00
2022-10-13T23:46:21.296Z,29.00
2022-10-13T23:48:49.019Z,31.00
2022-10-13T23:51:18.507Z,35.00
2022-10-13T23:53:46.672Z,34.00
2022-10-13T23:56:16.081Z,35.50
2022-10-13T23:58:44.379Z,37.00
